Time;durP1;ratioP1;P1;durP2;ratioP2;P2;SDS_P1;SDS_P2;PMS_P1;PMS_P2;Temp;Humidity;BMP_temperature;BMP_pressure;BME280_temperature;BME280_humidity;BME280_pressure;Samples;Min_cycle;Max_cycle;Signal;HPM_P1;HPM_P2
2022/04/22 00:02:18;;;;;;;13.77;5.85;;;9.60;99.90;;;;;;5072978;28;20057;-74
2022/04/22 00:04:43;;;;;;;17.05;6.53;;;9.60;99.90;;;;;;5073199;28;20047;-74
2022/04/22 00:07:09;;;;;;;16.20;6.43;;;9.60;99.90;;;;;;5073039;28;20053;-75
2022/04/22 00:09:35;;;;;;;13.38;5.97;;;9.50;99.90;;;;;;5073334;28;20056;-75
2022/04/22 00:12:00;;;;;;;12.55;6.20;;;9.50;99.90;;;;;;5073415;28;20387;-74
2022/04/22 00:14:26;;;;;;;13.95;6.35;;;9.40;99.90;;;;;;5073232;28;20051;-75
2022/04/22 00:16:51;;;;;;;13.32;5.95;;;9.40;99.90;;;;;;5054537;28;20044;-74
2022/04/22 00:19:17;;;;;;;13.68;5.75;;;9.40;99.90;;;;;;5072967;28;20450;-74
2022/04/22 00:21:43;;;;;;;16.13;7.20;;;9.30;99.90;;;;;;5072854;28;20040;-75
2022/04/22 00:24:09;;;;;;;13.73;6.40;;;9.30;99.90;;;;;;5054489;28;20044;-75
2022/04/22 00:26:34;;;;;;;14.57;6.32;;;9.30;99.90;;;;;;5073156;28;20049;-75
2022/04/22 00:29:01;;;;;;;14.13;6.13;;;9.20;99.90;;;;;;5073021;28;20044;-74
2022/04/22 00:31:26;;;;;;;12.73;6.25;;;9.20;99.90;;;;;;5072915;28;20059;-73
2022/04/22 00:33:52;;;;;;;16.70;5.97;;;9.20;99.90;;;;;;5072358;28;20049;-74
2022/04/22 00:36:18;;;;;;;14.48;6.93;;;9.10;99.90;;;;;;5054901;28;20067;-74
2022/04/22 00:38:43;;;;;;;14.15;6.50;;;9.10;99.90;;;;;;5072780;28;20036;-75
2022/04/22 00:41:09;;;;;;;12.63;6.22;;;9.40;99.90;;;;;;5073084;28;20032;-74
2022/04/22 00:43:43;;;;;;;15.25;7.32;;;9.10;99.90;;;;;;5072783;28;20145;-74
2022/04/22 00:46:08;;;;;;;17.38;6.70;;;9.00;99.90;;;;;;5073007;28;20044;-73
2022/04/22 00:48:34;;;;;;;13.25;6.43;;;9.00;99.90;;;;;;5072364;28;20051;-74
2022/04/22 00:51:00;;;;;;;16.60;7.97;;;8.90;99.90;;;;;;5072574;28;20044;-74
2022/04/22 00:53:26;;;;;;;15.73;7.03;;;8.90;99.90;;;;;;5054024;28;20131;-74
2022/04/22 00:55:51;;;;;;;14.63;7.05;;;9.30;99.90;;;;;;5054772;28;20127;-74
2022/04/22 00:58:17;;;;;;;15.50;7.22;;;9.00;99.90;;;;;;5072858;28;20539;-74
2022/04/22 01:00:43;;;;;;;14.88;7.75;;;8.90;99.90;;;;;;5072605;28;20120;-74
2022/04/22 01:03:09;;;;;;;17.02;7.30;;;8.80;99.90;;;;;;5054646;28;20128;-75
2022/04/22 01:11:04;;;;;;;16.35;7.97;;;8.70;99.90;;;;;;5072715;28;20044;-74
2022/04/22 01:13:30;;;;;;;15.32;7.40;;;8.70;99.90;;;;;;5072586;28;20052;-74
2022/04/22 01:15:56;;;;;;;15.02;7.38;;;8.70;99.90;;;;;;5072749;28;20051;-74
2022/04/22 01:18:22;;;;;;;18.33;7.10;;;8.90;99.90;;;;;;5072488;28;20481;-73
2022/04/22 01:20:47;;;;;;;15.95;6.95;;;8.50;99.90;;;;;;5071922;28;20048;-73
2022/04/22 01:23:13;;;;;;;20.45;7.70;;;9.00;99.90;;;;;;5053976;28;20049;-73
2022/04/22 01:25:39;;;;;;;18.58;6.90;;;9.10;99.90;;;;;;5054426;28;20052;-74
2022/04/22 01:28:05;;;;;;;12.75;6.03;;;8.40;99.90;;;;;;5072650;28;20047;-73
2022/04/22 01:30:31;;;;;;;15.40;6.40;;;8.40;99.90;;;;;;5072330;28;20048;-74
2022/04/22 01:32:57;;;;;;;16.38;7.05;;;8.40;99.90;;;;;;5054431;28;20044;-74
2022/04/22 01:35:24;;;;;;;16.20;7.35;;;8.40;99.90;;;;;;5074367;28;20123;-73
2022/04/22 01:37:50;;;;;;;15.15;5.88;;;8.30;99.90;;;;;;5075445;28;20047;-73
2022/04/22 01:40:16;;;;;;;15.55;6.00;;;8.40;99.90;;;;;;5075976;28;20127;-74
2022/04/22 01:42:42;;;;;;;15.85;6.50;;;8.30;99.90;;;;;;5075732;28;20139;-73
2022/04/22 01:45:09;;;;;;;15.15;5.88;;;8.30;99.90;;;;;;5075870;28;20044;-74
2022/04/22 01:47:35;;;;;;;15.32;6.18;;;8.30;99.90;;;;;;5075753;28;20127;-74
2022/04/22 01:50:02;;;;;;;14.52;6.93;;;8.20;99.90;;;;;;5075471;28;20045;-73
2022/04/22 01:52:29;;;;;;;15.43;7.13;;;8.20;99.90;;;;;;5074990;28;20095;-73
2022/04/22 01:54:56;;;;;;;14.98;6.07;;;8.20;99.90;;;;;;5057179;28;20084;-74
2022/04/22 01:57:22;;;;;;;14.32;6.18;;;8.20;99.90;;;;;;5075572;28;20037;-73
2022/04/22 01:59:49;;;;;;;13.10;5.75;;;8.20;99.90;;;;;;5075535;28;20127;-74
2022/04/22 02:02:18;;;;;;;14.18;6.38;;;8.10;99.90;;;;;;5075320;28;20043;-74
2022/04/22 02:04:44;;;;;;;13.75;6.47;;;8.20;99.90;;;;;;5075208;28;20048;-73
2022/04/22 02:07:10;;;;;;;11.68;5.95;;;8.10;99.90;;;;;;5057502;28;20066;-71
2022/04/22 02:09:36;;;;;;;14.88;6.18;;;8.10;99.90;;;;;;5074683;28;20117;-74
2022/04/22 02:12:03;;;;;;;13.80;6.60;;;8.10;99.90;;;;;;5075205;28;20037;-74
2022/04/22 02:14:29;;;;;;;12.95;5.85;;;8.10;99.90;;;;;;5057415;28;20141;-73
2022/04/22 02:16:56;;;;;;;12.90;6.13;;;8.00;99.90;;;;;;5075109;28;20055;-73
2022/04/22 02:19:21;;;;;;;12.55;6.07;;;7.90;99.90;;;;;;5075070;28;20054;-74
2022/04/22 02:21:47;;;;;;;12.57;5.43;;;7.90;99.90;;;;;;5075063;28;20036;-74
2022/04/22 02:24:13;;;;;;;13.48;5.82;;;7.90;99.90;;;;;;5074921;28;20048;-74
2022/04/22 02:29:23;;;;;;;11.88;5.55;;;7.80;99.90;;;;;;5074843;28;20372;-74
2022/04/22 02:31:52;;;;;;;13.77;5.40;;;7.90;99.90;;;;;;5074710;28;20048;-74
2022/04/22 02:34:21;;;;;;;12.27;4.93;;;7.90;99.90;;;;;;5074584;28;20483;-74
2022/04/22 02:36:48;;;;;;;11.98;4.47;;;7.90;99.90;;;;;;5074931;28;20052;-74
2022/04/22 02:39:14;;;;;;;10.38;4.53;;;8.20;99.90;;;;;;5074931;28;20040;-73
2022/04/22 02:47:08;;;;;;;9.85;4.35;;;7.90;99.90;;;;;;5074511;28;20213;-73
2022/04/22 02:49:34;;;;;;;11.70;4.25;;;8.00;99.90;;;;;;5074567;28;20158;-74
2022/04/22 02:52:01;;;;;;;10.63;4.05;;;7.90;99.90;;;;;;5074431;28;20106;-74
2022/04/22 02:54:28;;;;;;;9.98;4.50;;;7.80;99.90;;;;;;5056551;28;20063;-75
2022/04/22 02:56:54;;;;;;;11.93;4.22;;;8.00;99.90;;;;;;5074071;28;20090;-74
2022/04/22 02:59:20;;;;;;;12.48;4.47;;;7.80;99.90;;;;;;5073661;28;20048;-74
2022/04/22 03:01:46;;;;;;;11.10;4.32;;;7.80;99.90;;;;;;5056040;28;20044;-73
2022/04/22 03:04:12;;;;;;;10.30;4.38;;;7.70;99.90;;;;;;5074432;28;20048;-74
2022/04/22 03:06:38;;;;;;;14.00;4.55;;;7.80;99.90;;;;;;5074301;28;20408;-74
2022/04/22 03:09:04;;;;;;;13.00;4.82;;;7.80;99.90;;;;;;5056206;28;20076;-74
2022/04/22 03:11:30;;;;;;;10.25;4.38;;;7.70;99.90;;;;;;5074447;28;20101;-73
2022/04/22 03:13:56;;;;;;;8.85;4.15;;;7.70;99.90;;;;;;5073381;28;20093;-73
2022/04/22 03:16:26;;;;;;;10.52;4.50;;;7.70;99.90;;;;;;5073743;28;20045;-74
2022/04/22 03:18:51;;;;;;;9.43;4.43;;;7.60;99.90;;;;;;5074097;28;20051;-73
2022/04/22 03:21:17;;;;;;;10.48;4.40;;;7.60;99.90;;;;;;5073914;28;20044;-73
2022/04/22 03:23:42;;;;;;;11.07;4.53;;;7.60;99.90;;;;;;5073968;28;20041;-76
2022/04/22 03:26:08;;;;;;;11.20;4.30;;;7.60;99.90;;;;;;5073823;28;20036;-73
2022/04/22 03:28:34;;;;;;;10.75;4.28;;;7.60;99.90;;;;;;5073407;28;20488;-74
2022/04/22 03:31:00;;;;;;;9.57;4.28;;;7.50;99.90;;;;;;5055071;28;20052;-74
2022/04/22 03:33:25;;;;;;;9.02;4.15;;;7.50;99.90;;;;;;5056056;28;20041;-73
2022/04/22 03:35:51;;;;;;;14.63;4.15;;;7.50;99.90;;;;;;5073994;28;20056;-74
2022/04/22 03:38:21;;;;;;;10.85;4.00;;;7.50;99.90;;;;;;5073741;28;20055;-74
2022/04/22 03:40:47;;;;;;;10.65;4.25;;;7.50;99.90;;;;;;5073350;28;20041;-75
2022/04/22 03:43:14;;;;;;;11.18;4.88;;;7.50;99.90;;;;;;5073551;28;20045;-74
2022/04/22 03:45:40;;;;;;;10.10;4.00;;;7.70;99.90;;;;;;5072745;28;20051;-74
2022/04/22 03:48:07;;;;;;;13.25;4.38;;;7.50;99.90;;;;;;5055588;28;20131;-75
2022/04/22 03:50:33;;;;;;;13.40;5.50;;;7.40;99.90;;;;;;5073443;28;20044;-74
2022/04/22 03:52:58;;;;;;;9.90;3.78;;;7.40;99.90;;;;;;5052459;28;20053;-74
2022/04/22 03:55:24;;;;;;;10.00;3.92;;;7.30;99.90;;;;;;5073370;28;20045;-75
2022/04/22 04:00:34;;;;;;;9.38;3.83;;;7.30;99.90;;;;;;5073075;28;20050;-74
2022/04/22 04:03:01;;;;;;;10.77;3.72;;;8.00;99.90;;;;;;5038385;28;20131;-74
2022/04/22 04:05:27;;;;;;;10.75;4.32;;;7.20;99.90;;;;;;5073457;28;20068;-74
2022/04/22 04:07:53;;;;;;;13.82;4.93;;;7.20;99.90;;;;;;5073159;28;20079;-74
2022/04/22 04:15:59;;;;;;;11.50;4.55;;;8.10;99.90;;;;;;5073437;28;20132;-75
2022/04/22 04:18:26;;;;;;;12.77;4.45;;;7.10;99.90;;;;;;5072796;28;20041;-74
2022/04/22 04:23:38;;;;;;;9.98;4.57;;;7.00;99.90;;;;;;5072961;28;20057;-74
2022/04/22 04:26:04;;;;;;;9.85;4.40;;;7.00;99.90;;;;;;5073453;28;20469;-74
2022/04/22 04:28:32;;;;;;;10.40;4.13;;;7.00;99.90;;;;;;5074269;28;20047;-75
2022/04/22 04:30:59;;;;;;;10.80;4.20;;;6.90;99.90;;;;;;5073061;28;20052;-75
2022/04/22 04:33:25;;;;;;;15.93;5.10;;;6.90;99.90;;;;;;5072649;28;20040;-75
2022/04/22 04:35:50;;;;;;;12.32;4.60;;;6.90;99.90;;;;;;5072762;28;20494;-75
2022/04/22 04:38:17;;;;;;;8.77;3.72;;;6.80;99.90;;;;;;5072595;28;20036;-75
2022/04/22 04:40:44;;;;;;;9.82;4.15;;;6.80;99.90;;;;;;5073139;28;20044;-75
2022/04/22 04:43:09;;;;;;;9.05;3.55;;;6.80;99.90;;;;;;5054883;28;20048;-74
2022/04/22 04:45:35;;;;;;;9.15;3.88;;;6.80;99.90;;;;;;5072955;28;20073;-75
2022/04/22 04:48:02;;;;;;;12.05;4.50;;;6.80;99.90;;;;;;5072718;28;20392;-75
2022/04/22 04:50:27;;;;;;;9.60;4.25;;;6.80;99.90;;;;;;5072192;28;20048;-75
2022/04/22 04:52:53;;;;;;;12.88;4.38;;;6.80;99.90;;;;;;5072248;28;20056;-75
2022/04/22 04:55:19;;;;;;;10.23;4.15;;;6.70;99.90;;;;;;5054805;28;20076;-76
2022/04/22 04:57:45;;;;;;;11.80;4.35;;;6.70;99.90;;;;;;5072925;28;20051;-74
2022/04/22 05:00:11;;;;;;;10.52;4.82;;;6.80;99.90;;;;;;5054557;28;20506;-75
2022/04/22 05:02:38;;;;;;;10.43;3.97;;;6.70;99.90;;;;;;5072786;28;20395;-75
2022/04/22 05:05:05;;;;;;;8.75;3.88;;;6.70;99.90;;;;;;5072281;28;20064;-75
2022/04/22 05:07:33;;;;;;;12.70;4.47;;;6.80;99.90;;;;;;5054217;28;20102;-73
2022/04/22 05:09:58;;;;;;;12.88;4.35;;;6.80;99.90;;;;;;5057837;28;20110;-75
2022/04/22 05:12:24;;;;;;;10.63;4.25;;;6.90;99.90;;;;;;5058768;28;20040;-75
2022/04/22 05:14:50;;;;;;;12.40;4.03;;;6.80;99.90;;;;;;5076375;28;20506;-75
2022/04/22 05:17:15;;;;;;;9.57;3.65;;;6.80;99.90;;;;;;5076411;28;20158;-75
2022/04/22 05:19:41;;;;;;;12.75;4.40;;;6.80;99.90;;;;;;5058184;28;20075;-75
2022/04/22 05:22:07;;;;;;;11.30;4.03;;;6.90;99.90;;;;;;5075470;28;20033;-75
2022/04/22 05:24:35;;;;;;;11.52;3.67;;;7.40;99.90;;;;;;5076063;28;20076;-75
2022/04/22 05:27:01;;;;;;;10.93;3.97;;;6.90;99.90;;;;;;5076167;28;20033;-72
2022/04/22 05:34:55;;;;;;;8.40;3.30;;;7.00;99.90;;;;;;5075628;28;20044;-73
2022/04/22 05:37:21;;;;;;;13.00;3.80;;;7.00;99.90;;;;;;5058007;28;20056;-72
2022/04/22 05:39:47;;;;;;;12.73;3.70;;;6.80;99.90;;;;;;5075276;28;20484;-73
2022/04/22 05:42:13;;;;;;;8.98;3.70;;;7.10;99.90;;;;;;5075687;28;20120;-73
2022/04/22 05:44:39;;;;;;;6.97;3.25;;;7.10;99.90;;;;;;5075989;28;20041;-77
2022/04/22 05:47:06;;;;;;;9.20;3.55;;;7.10;99.90;;;;;;5057949;28;20458;-73
2022/04/22 05:49:32;;;;;;;13.80;4.57;;;7.10;99.90;;;;;;5075456;28;20048;-74
2022/04/22 05:51:58;;;;;;;7.90;3.33;;;7.10;99.90;;;;;;5075536;28;20486;-74
2022/04/22 05:54:23;;;;;;;9.32;3.40;;;7.20;99.90;;;;;;5057130;28;20053;-74
2022/04/22 05:56:49;;;;;;;11.13;4.82;;;7.20;99.90;;;;;;5056936;28;20122;-74
2022/04/22 05:59:15;;;;;;;12.13;4.00;;;7.30;99.90;;;;;;5075491;28;20059;-74
2022/04/22 06:01:40;;;;;;;9.90;3.30;;;7.30;99.90;;;;;;5075317;28;20062;-74
2022/04/22 06:04:06;;;;;;;9.68;3.40;;;7.40;99.90;;;;;;5057889;28;20391;-75
2022/04/22 06:06:31;;;;;;;10.43;3.10;;;7.50;99.90;;;;;;5057251;28;20129;-74
2022/04/22 06:11:41;;;;;;;10.00;3.30;;;7.60;99.90;;;;;;5056893;28;20139;-74
2022/04/22 06:14:09;;;;;;;8.13;2.83;;;7.60;99.90;;;;;;5075372;28;20115;-74
2022/04/22 06:16:35;;;;;;;8.75;2.97;;;7.70;99.90;;;;;;5075092;28;20131;-73
2022/04/22 06:19:01;;;;;;;9.85;2.95;;;8.70;99.90;;;;;;5075116;28;20044;-73
2022/04/22 06:21:29;;;;;;;9.35;2.85;;;7.80;99.90;;;;;;5074651;28;20059;-74
2022/04/22 06:23:54;;;;;;;11.98;3.60;;;7.90;99.90;;;;;;5075242;28;20468;-75
2022/04/22 06:26:20;;;;;;;7.93;2.92;;;7.90;99.90;;;;;;5074259;28;20649;-75
2022/04/22 06:28:46;;;;;;;7.47;2.47;;;8.30;99.90;;;;;;5074963;28;20037;-75
2022/04/22 06:31:12;;;;;;;7.80;2.78;;;8.00;99.90;;;;;;5074617;28;20052;-75
2022/04/22 06:33:38;;;;;;;9.20;2.55;;;8.00;99.90;;;;;;5074646;28;20037;-75
2022/04/22 06:36:12;;;;;;;8.05;2.75;;;8.10;99.90;;;;;;5074922;28;20052;-75
2022/04/22 06:38:39;;;;;;;8.00;2.92;;;8.10;99.90;;;;;;5075056;28;20109;-75
2022/04/22 06:46:34;;;;;;;10.48;2.67;;;8.30;99.90;;;;;;5055570;28;20136;-76
2022/04/22 06:49:01;;;;;;;6.85;2.53;;;8.40;99.90;;;;;;5074784;28;20123;-80
2022/04/22 06:51:28;;;;;;;11.25;2.85;;;8.50;99.90;;;;;;5074894;28;20511;-80
2022/04/22 06:53:54;;;;;;;7.85;2.65;;;8.50;99.90;;;;;;5074343;28;20053;-78
2022/04/22 06:56:27;;;;;;;8.88;2.50;;;8.60;99.90;;;;;;5074513;28;20048;-81
2022/04/22 06:58:53;;;;;;;13.10;3.92;;;8.70;99.90;;;;;;5073624;28;20051;-81
2022/04/22 07:01:19;;;;;;;6.35;2.38;;;8.80;99.90;;;;;;5056298;28;20132;-79
2022/04/22 07:03:45;;;;;;;6.45;2.25;;;8.90;99.90;;;;;;5074406;28;20127;-80
2022/04/22 07:06:11;;;;;;;7.82;2.75;;;9.00;99.90;;;;;;5074349;28;20131;-80
2022/04/22 07:08:37;;;;;;;8.07;2.55;;;9.00;99.90;;;;;;5074285;28;20040;-76
2022/04/22 07:11:04;;;;;;;6.05;2.45;;;9.10;99.90;;;;;;5074047;28;20056;-81
2022/04/22 07:13:29;;;;;;;7.05;2.72;;;9.20;99.90;;;;;;5056335;28;20511;-78
2022/04/22 07:15:59;;;;;;;7.53;2.45;;;9.40;99.90;;;;;;5073692;28;20037;-81
2022/04/22 07:18:25;;;;;;;7.43;2.42;;;9.40;99.90;;;;;;5074129;28;20052;-81
2022/04/22 07:20:51;;;;;;;7.95;2.53;;;9.40;99.90;;;;;;5074051;28;20051;-80
2022/04/22 07:23:17;;;;;;;7.13;2.40;;;9.50;99.90;;;;;;5074054;28;20130;-81
2022/04/22 07:25:45;;;;;;;8.25;3.05;;;9.60;99.90;;;;;;5039398;28;20503;-81
2022/04/22 07:28:13;;;;;;;10.32;2.50;;;9.70;99.90;;;;;;5073666;28;20541;-81
2022/04/22 07:30:43;;;;;;;7.28;2.30;;;9.90;99.90;;;;;;5073013;28;20045;-81
2022/04/22 07:33:09;;;;;;;5.63;2.38;;;10.00;99.90;;;;;;5073152;28;20037;-80
2022/04/22 07:35:34;;;;;;;7.03;2.42;;;10.00;99.90;;;;;;5074000;28;20047;-78
2022/04/22 07:38:01;;;;;;;8.45;2.70;;;10.10;99.90;;;;;;5055963;28;20056;-80
2022/04/22 07:40:27;;;;;;;9.30;2.58;;;10.20;99.90;;;;;;5074713;28;20053;-81
2022/04/22 07:48:26;;;;;;;9.15;2.80;;;10.50;99.90;;;;;;5055800;28;20044;-80
2022/04/22 07:50:52;;;;;;;8.60;2.75;;;10.60;99.90;;;;;;5074594;28;20105;-81
2022/04/22 07:53:18;;;;;;;7.65;2.88;;;10.80;99.90;;;;;;5056191;28;20381;-81
2022/04/22 07:55:45;;;;;;;8.95;2.33;;;10.80;99.90;;;;;;5074897;28;20056;-80
2022/04/22 07:58:13;;;;;;;7.78;2.28;;;10.90;99.90;;;;;;5055174;28;20037;-80
2022/04/22 08:00:43;;;;;;;6.72;2.10;;;10.90;99.90;;;;;;5073853;28;20049;-81
2022/04/22 08:03:09;;;;;;;8.45;2.80;;;11.00;99.90;;;;;;5073022;28;20041;-81
2022/04/22 08:05:35;;;;;;;7.72;2.45;;;11.10;99.90;;;;;;5073526;28;20129;-77
2022/04/22 08:08:01;;;;;;;12.05;2.63;;;11.10;99.90;;;;;;5055620;28;20076;-77
2022/04/22 08:10:27;;;;;;;6.95;2.25;;;11.40;99.90;;;;;;5057184;28;20080;-75
2022/04/22 08:12:53;;;;;;;7.45;2.33;;;11.40;99.90;;;;;;5067688;28;20111;-81
2022/04/22 08:15:19;;;;;;;8.88;2.20;;;11.40;99.90;;;;;;5071734;28;20084;-77
2022/04/22 08:17:46;;;;;;;5.53;2.10;;;11.50;99.90;;;;;;5071004;28;20041;-75
2022/04/22 08:20:12;;;;;;;9.50;2.38;;;11.60;99.90;;;;;;5052301;28;20048;-76
2022/04/22 08:22:39;;;;;;;5.53;2.22;;;11.70;99.90;;;;;;5072265;28;20404;-74
2022/04/22 08:25:05;;;;;;;8.27;2.35;;;11.80;99.90;;;;;;5038665;28;20039;-75
2022/04/22 08:27:31;;;;;;;8.93;2.63;;;12.00;99.90;;;;;;5073121;28;20032;-73
2022/04/22 08:29:59;;;;;;;9.65;2.50;;;12.00;99.90;;;;;;5051046;28;20109;-75
2022/04/22 08:32:25;;;;;;;7.30;2.30;;;12.10;99.90;;;;;;5065986;28;20480;-70
2022/04/22 08:34:51;;;;;;;7.78;2.63;;;12.10;99.90;;;;;;5064569;28;20037;-71
2022/04/22 08:37:18;;;;;;;7.43;2.65;;;12.20;99.90;;;;;;5051355;28;20037;-73
2022/04/22 08:39:44;;;;;;;6.63;2.22;;;12.30;99.90;;;;;;5065257;28;20054;-74
2022/04/22 08:42:12;;;;;;;8.30;2.22;;;12.40;99.90;;;;;;5070222;28;20041;-73
2022/04/22 08:44:38;;;;;;;5.35;2.10;;;12.40;99.90;;;;;;5056722;28;20063;-74
2022/04/22 08:50:06;;;;;;;6.25;1.90;;;12.50;99.90;;;;;;5075846;28;20060;-80
2022/04/22 08:52:35;;;;;;;6.00;2.17;;;12.70;99.90;;;;;;5075457;28;20056;-75
2022/04/22 08:55:03;;;;;;;5.53;1.80;;;12.70;99.90;;;;;;5057443;28;20056;-79
2022/04/22 08:57:29;;;;;;;7.90;2.35;;;12.80;99.90;;;;;;5058140;28;20052;-68
2022/04/22 09:00:09;;;;;;;10.35;2.35;;;12.90;99.90;;;;;;5075174;28;20048;-71
2022/04/22 09:02:35;;;;;;;8.27;2.47;;;13.10;99.90;;;;;;5076249;28;20051;-71
2022/04/22 09:05:01;;;;;;;9.95;2.80;;;13.20;99.90;;;;;;5074649;28;20036;-73
2022/04/22 09:07:28;;;;;;;5.70;2.22;;;13.10;99.90;;;;;;5057291;28;20048;-66
2022/04/22 09:09:54;;;;;;;8.20;2.90;;;13.40;99.90;;;;;;5057118;28;20056;-68
2022/04/22 09:12:25;;;;;;;9.50;2.67;;;13.40;99.90;;;;;;5075256;28;20029;-72
2022/04/22 09:14:53;;;;;;;8.60;2.72;;;13.50;99.90;;;;;;5075906;28;20381;-73
2022/04/22 09:17:23;;;;;;;7.45;2.40;;;13.70;99.90;;;;;;5075049;28;20037;-72
2022/04/22 09:19:51;;;;;;;6.70;2.70;;;13.70;99.90;;;;;;5075807;28;20395;-72
2022/04/22 09:22:24;;;;;;;7.78;2.47;;;13.70;99.90;;;;;;5051295;28;20044;-73
2022/04/22 09:24:52;;;;;;;5.88;2.20;;;13.80;99.90;;;;;;5085825;28;20036;-70
2022/04/22 09:27:19;;;;;;;7.00;2.42;;;13.80;99.90;;;;;;5077390;28;20048;-74
2022/04/22 09:29:56;;;;;;;7.53;2.47;;;13.80;99.90;;;;;;5095779;28;20411;-72
2022/04/22 09:32:27;;;;;;;7.47;2.55;;;13.80;99.90;;;;;;5095245;28;20040;-72
2022/04/22 09:34:57;;;;;;;5.88;2.25;;;13.90;99.90;;;;;;5094930;28;20040;-69
2022/04/22 09:43:34;;;;;;;6.78;2.33;;;14.40;99.90;;;;;;5095435;28;20055;-68
2022/04/22 09:46:01;;;;;;;8.80;2.60;;;14.40;99.90;;;;;;5095035;28;20048;-71
2022/04/22 09:48:44;;;;;;;8.02;2.78;;;14.50;99.90;;;;;;5077849;28;20048;-71
2022/04/22 09:51:26;;;;;;;10.48;3.00;;;14.50;99.90;;;;;;5084550;28;20059;-73
2022/04/22 09:54:05;;;;;;;7.75;2.80;;;14.80;99.90;;;;;;5071751;28;20059;-72
2022/04/22 09:56:34;;;;;;;6.95;2.53;;;14.60;99.90;;;;;;5073896;28;20037;-69
2022/04/22 09:59:24;;;;;;;12.18;2.58;;;14.70;99.90;;;;;;5053880;28;20041;-71
2022/04/22 10:01:51;;;;;;;7.82;2.92;;;14.70;99.90;;;;;;5073087;28;20036;-73
2022/04/22 10:04:18;;;;;;;9.93;3.92;;;14.70;99.90;;;;;;5071688;28;20593;-72
2022/04/22 10:06:45;;;;;;;6.50;2.88;;;14.60;99.90;;;;;;5073566;28;20048;-71
2022/04/22 10:09:14;;;;;;;8.80;2.42;;;14.60;99.90;;;;;;5054612;28;20100;-72
2022/04/22 10:11:41;;;;;;;10.07;2.90;;;14.70;99.90;;;;;;5072470;28;20051;-68
2022/04/22 10:14:09;;;;;;;7.95;3.28;;;14.80;99.90;;;;;;5073304;28;20056;-70
2022/04/22 10:16:36;;;;;;;8.02;2.72;;;14.80;99.90;;;;;;5072421;28;20125;-67
2022/04/22 10:19:02;;;;;;;9.88;3.10;;;14.80;99.90;;;;;;5073315;28;20048;-72
2022/04/22 10:21:28;;;;;;;10.70;3.00;;;14.90;99.90;;;;;;5073508;28;20044;-71
2022/04/22 10:23:56;;;;;;;7.95;3.00;;;14.90;99.90;;;;;;5054559;28;20056;-71
2022/04/22 10:26:22;;;;;;;9.13;2.90;;;15.00;99.90;;;;;;5073732;28;20182;-70
2022/04/22 10:28:48;;;;;;;7.68;3.17;;;15.00;99.90;;;;;;5074170;28;20495;-68
2022/04/22 10:31:15;;;;;;;7.93;3.13;;;15.00;99.90;;;;;;5055748;28;20629;-77
2022/04/22 10:33:44;;;;;;;9.15;3.13;;;15.00;99.90;;;;;;5074011;28;20048;-73
2022/04/22 10:36:14;;;;;;;9.85;3.17;;;15.00;99.90;;;;;;5072957;28;20094;-69
2022/04/22 10:38:43;;;;;;;8.88;3.00;;;15.20;99.90;;;;;;5055502;28;20102;-72
2022/04/22 10:41:18;;;;;;;7.45;2.83;;;15.30;99.90;;;;;;5055461;28;20145;-74
2022/04/22 10:49:18;;;;;;;7.50;2.88;;;15.50;99.90;;;;;;5055462;28;20060;-69
2022/04/22 10:52:13;;;;;;;7.30;2.80;;;15.50;99.80;;;;;;5054365;28;20059;-69
2022/04/22 10:54:51;;;;;;;12.98;3.03;;;15.50;99.20;;;;;;5039871;28;20131;-71
2022/04/22 10:57:29;;;;;;;8.70;2.90;;;15.60;99.20;;;;;;5074232;28;20041;-70
2022/04/22 11:00:07;;;;;;;7.53;2.80;;;15.50;99.00;;;;;;5074005;28;20048;-71
2022/04/22 11:02:43;;;;;;;7.45;2.97;;;15.70;97.90;;;;;;5074283;28;20045;-71
2022/04/22 11:05:20;;;;;;;7.55;2.72;;;15.60;97.30;;;;;;5074433;28;20118;-68
2022/04/22 11:07:58;;;;;;;8.25;2.92;;;15.80;98.00;;;;;;5074194;28;20037;-70
2022/04/22 11:10:29;;;;;;;9.07;3.30;;;15.80;97.00;;;;;;5073966;28;20060;-70
2022/04/22 11:12:57;;;;;;;8.20;3.08;;;15.70;96.20;;;;;;5074331;28;20044;-69
2022/04/22 11:15:42;;;;;;;7.53;3.17;;;15.70;95.10;;;;;;5055906;28;20447;-69
2022/04/22 11:18:08;;;;;;;9.25;2.95;;;15.70;94.20;;;;;;5074170;28;20179;-70
2022/04/22 11:20:36;;;;;;;8.23;3.25;;;15.70;95.60;;;;;;5074073;28;20123;-69
2022/04/22 11:23:03;;;;;;;9.93;3.67;;;15.90;96.20;;;;;;5074130;28;20037;-71
2022/04/22 11:25:30;;;;;;;9.00;3.03;;;16.10;96.20;;;;;;5073906;28;20044;-68
2022/04/22 11:27:58;;;;;;;8.90;3.35;;;16.20;95.40;;;;;;5073848;28;20127;-72
2022/04/22 11:30:27;;;;;;;7.63;2.97;;;16.30;95.40;;;;;;5073038;28;20055;-72
2022/04/22 11:33:16;;;;;;;8.95;3.10;;;16.30;94.20;;;;;;5055703;28;20407;-70
2022/04/22 11:35:41;;;;;;;8.63;2.72;;;16.30;94.30;;;;;;5055035;28;20385;-68
2022/04/22 11:38:07;;;;;;;9.73;3.38;;;16.50;94.90;;;;;;5073424;28;20123;-69
2022/04/22 11:40:40;;;;;;;8.27;3.05;;;16.60;94.10;;;;;;5068876;28;20037;-67
2022/04/22 11:43:17;;;;;;;10.10;2.85;;;16.60;93.90;;;;;;5037646;28;20052;-68
2022/04/22 11:45:44;;;;;;;9.40;3.00;;;16.60;94.30;;;;;;5071239;28;20557;-67
2022/04/22 11:48:12;;;;;;;9.70;3.17;;;16.70;94.10;;;;;;5054836;28;20076;-68
2022/04/22 11:50:42;;;;;;;10.38;4.00;;;16.90;93.90;;;;;;5073138;28;20051;-68
2022/04/22 11:53:17;;;;;;;8.02;3.13;;;16.90;93.10;;;;;;5054686;28;20528;-67
2022/04/22 11:55:45;;;;;;;9.70;3.00;;;17.10;92.50;;;;;;5073435;28;20051;-67
2022/04/22 11:58:12;;;;;;;12.40;3.30;;;17.20;92.90;;;;;;5073573;28;20044;-67
2022/04/22 12:06:15;;;;;;;7.25;3.15;;;17.60;92.30;;;;;;5073520;28;20056;-67
2022/04/22 12:08:54;;;;;;;8.73;3.42;;;17.40;90.90;;;;;;5055342;28;20055;-67
2022/04/22 12:11:23;;;;;;;8.43;3.67;;;17.30;91.00;;;;;;5073335;28;20504;-67
2022/04/22 12:13:50;;;;;;;8.75;3.10;;;17.40;91.20;;;;;;5054646;28;20076;-69
2022/04/22 12:16:27;;;;;;;12.90;4.03;;;17.40;90.50;;;;;;5069501;28;20051;-67
2022/04/22 12:18:54;;;;;;;11.98;4.03;;;17.40;90.20;;;;;;5068561;28;20120;-68
2022/04/22 12:21:21;;;;;;;10.63;3.58;;;17.40;90.00;;;;;;5065165;28;20353;-69
2022/04/22 12:23:49;;;;;;;10.18;3.70;;;17.50;90.40;;;;;;5051472;28;20068;-67
2022/04/22 12:26:20;;;;;;;9.75;3.63;;;17.60;90.30;;;;;;5072422;28;20045;-66
2022/04/22 12:28:59;;;;;;;11.93;4.10;;;17.60;90.60;;;;;;5073247;28;20040;-67
2022/04/22 12:31:25;;;;;;;11.57;4.25;;;17.60;90.80;;;;;;5070785;28;20488;-67
2022/04/22 12:34:08;;;;;;;11.48;3.92;;;17.70;90.50;;;;;;5060165;28;20400;-68
2022/04/22 12:36:40;;;;;;;10.05;4.35;;;17.70;90.30;;;;;;5052653;28;20516;-67
2022/04/22 12:39:08;;;;;;;;;;;17.70;90.40;;;;;;5069904;28;20045;-67
2022/04/22 12:41:47;;;;;;;10.18;3.72;;;17.60;90.80;;;;;;5072937;28;19921;-66
2022/04/22 12:44:14;;;;;;;9.75;3.85;;;17.40;90.70;;;;;;5053991;28;20053;-67
2022/04/22 12:52:25;;;;;;;8.82;4.10;;;17.20;91.90;;;;;;5058089;28;20431;-67
2022/04/22 12:54:59;;;;;;;10.77;3.97;;;17.20;91.10;;;;;;5071826;28;20044;-67
2022/04/22 12:57:25;;;;;;;9.77;4.15;;;17.30;91.20;;;;;;5072975;28;20115;-67
2022/04/22 12:59:56;;;;;;;14.43;4.68;;;17.70;91.20;;;;;;5054661;28;20472;-67
2022/04/22 13:02:28;;;;;;;9.63;3.58;;;18.00;90.60;;;;;;5072950;28;20114;-66
2022/04/22 13:04:58;;;;;;;10.90;4.63;;;17.70;90.40;;;;;;5073118;28;20048;-66
2022/04/22 13:07:25;;;;;;;9.05;3.88;;;17.90;90.40;;;;;;5054460;28;20090;-67
2022/04/22 13:09:50;;;;;;;9.23;3.55;;;18.20;89.00;;;;;;5072539;28;20079;-68
2022/04/22 13:12:17;;;;;;;8.38;3.42;;;18.30;89.30;;;;;;5072910;28;20044;-68
2022/04/22 13:14:43;;;;;;;12.27;4.30;;;18.10;89.60;;;;;;5054143;28;20052;-67
2022/04/22 13:17:24;;;;;;;11.40;4.45;;;18.00;90.00;;;;;;5072007;28;20115;-67
2022/04/22 13:19:49;;;;;;;10.05;4.18;;;17.90;90.10;;;;;;5072727;28;20109;-67
2022/04/22 13:22:16;;;;;;;9.63;4.05;;;17.70;89.60;;;;;;5072068;28;20116;-67
2022/04/22 13:24:44;;;;;;;12.15;4.50;;;17.90;89.70;;;;;;5072410;28;20087;-68
2022/04/22 13:27:11;;;;;;;10.02;4.30;;;18.00;87.80;;;;;;5072790;28;20162;-68
2022/04/22 13:29:37;;;;;;;13.50;4.22;;;17.80;87.60;;;;;;5073140;28;20052;-68
2022/04/22 13:32:03;;;;;;;9.70;4.72;;;17.90;87.30;;;;;;5074990;28;20503;-68
2022/04/22 13:34:29;;;;;;;8.80;4.18;;;18.00;86.50;;;;;;5075892;28;20044;-68
2022/04/22 13:36:55;;;;;;;11.35;4.40;;;18.00;86.50;;;;;;5076234;28;20443;-67
2022/04/22 13:39:20;;;;;;;10.32;4.57;;;18.00;86.40;;;;;;5057334;28;20056;-69
2022/04/22 13:41:46;;;;;;;11.13;3.85;;;18.00;85.30;;;;;;5076146;28;20056;-68
2022/04/22 13:44:12;;;;;;;11.07;4.20;;;17.80;85.30;;;;;;5075971;28;20048;-66
2022/04/22 13:52:21;;;;;;;11.15;4.80;;;17.50;84.50;;;;;;5058074;28;20044;-67
2022/04/22 13:54:47;;;;;;;10.40;4.35;;;17.80;83.70;;;;;;5056248;28;20092;-67
2022/04/22 13:57:12;;;;;;;10.80;3.88;;;17.80;83.50;;;;;;5075613;28;20095;-66
2022/04/22 13:59:38;;;;;;;9.23;4.07;;;17.80;83.80;;;;;;5075654;28;20429;-66
2022/04/22 14:02:04;;;;;;;13.55;4.88;;;17.80;83.90;;;;;;5075202;28;20048;-66
2022/04/22 14:04:32;;;;;;;10.02;4.25;;;17.60;82.80;;;;;;5075480;28;20044;-65
2022/04/22 14:06:57;;;;;;;8.05;3.88;;;17.50;83.40;;;;;;5056798;28;20496;-66